CheckWX is a tool to help pilots better visualize weather data.  It is not intended as a substitute for an official pre-flight weather briefing.

19:35:18 UTC

LFPN METAR
Toussus-le-Noble Airport
Toussus-le-Noble, France
Current

35 mins ago

LFPN 121900Z AUTO 23006KT CAVOK 03/01 Q1003 NOSIG
Observed
Nov-12 @ 19:00 UTC
Wind
  • 230° at 6 KTS
Visibility
10,000+ meters
Flight Rules
VFR
Cloud Levels
  • Clear skies
Temperature
C / 37°F
Dewpoint
C / 34°F
Humidity
87%
Altimeter
29.62" Hg
Pressure
1002.92 hPa
Previous

1 hour ago

LFPN 121830Z AUTO 23006KT CAVOK 03/01 Q1003 NOSIG
Observed
Nov-12 @ 18:30 UTC
Wind
  • 230° at 6 KTS
Visibility
10,000+ meters
Flight Rules
VFR
Cloud Levels
  • Clear skies
Temperature
C / 37°F
Dewpoint
C / 34°F
Humidity
87%
Altimeter
29.62" Hg
Pressure
1002.92 hPa
Previous

2 hours ago

LFPN 121800Z AUTO 26006KT CAVOK 04/02 Q1003 NOSIG
Observed
Nov-12 @ 18:00 UTC
Wind
  • 260° at 6 KTS
Visibility
10,000+ meters
Flight Rules
VFR
Cloud Levels
  • Clear skies
Temperature
C / 39°F
Dewpoint
C / 36°F
Humidity
87%
Altimeter
29.62" Hg
Pressure
1002.92 hPa